sensor_id;sensor_type;location;lat;lon;timestamp;pressure;altitude;pressure_sealevel;temperature;humidity
8051;BME280;4068;42.158;24.732;2023-01-28T00:01:18;98929.03;;;4.34;100.00
8051;BME280;4068;42.158;24.732;2023-01-28T00:03:44;98922.97;;;4.34;100.00
8051;BME280;4068;42.158;24.732;2023-01-28T00:06:12;98933.16;;;4.38;100.00
8051;BME280;4068;42.158;24.732;2023-01-28T00:08:38;98913.91;;;4.25;100.00
8051;BME280;4068;42.158;24.732;2023-01-28T00:11:05;98938.97;;;4.29;100.00
8051;BME280;4068;42.158;24.732;2023-01-28T00:13:32;98931.72;;;4.20;100.00
8051;BME280;4068;42.158;24.732;2023-01-28T00:15:59;98905.16;;;3.97;100.00
8051;BME280;4068;42.158;24.732;2023-01-28T00:18:28;98932.38;;;4.09;100.00
8051;BME280;4068;42.158;24.732;2023-01-28T00:21:09;98937.63;;;4.09;100.00
8051;BME280;4068;42.158;24.732;2023-01-28T00:23:37;98937.00;;;4.05;100.00
8051;BME280;4068;42.158;24.732;2023-01-28T00:26:05;98928.56;;;4.00;100.00
8051;BME280;4068;42.158;24.732;2023-01-28T00:28:30;98949.34;;;4.03;100.00
8051;BME280;4068;42.158;24.732;2023-01-28T00:30:56;98939.34;;;3.95;100.00
8051;BME280;4068;42.158;24.732;2023-01-28T00:33:22;98955.47;;;4.04;100.00
8051;BME280;4068;42.158;24.732;2023-01-28T00:35:56;98959.13;;;4.01;100.00
8051;BME280;4068;42.158;24.732;2023-01-28T00:38:22;98958.28;;;4.01;100.00
8051;BME280;4068;42.158;24.732;2023-01-28T00:40:47;98962.47;;;4.03;100.00
8051;BME280;4068;42.158;24.732;2023-01-28T00:43:12;98970.53;;;4.00;100.00
8051;BME280;4068;42.158;24.732;2023-01-28T00:45:38;98943.00;;;3.93;100.00
8051;BME280;4068;42.158;24.732;2023-01-28T00:48:03;98975.59;;;4.03;100.00
8051;BME280;4068;42.158;24.732;2023-01-28T00:50:29;98974.56;;;4.06;100.00
8051;BME280;4068;42.158;24.732;2023-01-28T00:52:54;98978.97;;;4.05;100.00
8051;BME280;4068;42.158;24.732;2023-01-28T00:55:20;98983.41;;;4.05;100.00
8051;BME280;4068;42.158;24.732;2023-01-28T00:57:45;98981.69;;;4.04;100.00
8051;BME280;4068;42.158;24.732;2023-01-28T01:00:11;98981.59;;;4.05;100.00
8051;BME280;4068;42.158;24.732;2023-01-28T01:02:37;98983.75;;;3.98;100.00
8051;BME280;4068;42.158;24.732;2023-01-28T01:05:02;98979.38;;;3.99;100.00
8051;BME280;4068;42.158;24.732;2023-01-28T01:07:29;98977.31;;;3.90;100.00
8051;BME280;4068;42.158;24.732;2023-01-28T01:10:06;98972.78;;;3.92;100.00
8051;BME280;4068;42.158;24.732;2023-01-28T01:12:32;98983.22;;;3.93;100.00
8051;BME280;4068;42.158;24.732;2023-01-28T01:14:57;98981.03;;;4.00;100.00
8051;BME280;4068;42.158;24.732;2023-01-28T01:17:23;98978.72;;;3.95;100.00
8051;BME280;4068;42.158;24.732;2023-01-28T01:19:49;98963.09;;;3.79;100.00
8051;BME280;4068;42.158;24.732;2023-01-28T01:22:14;98982.25;;;3.94;100.00
8051;BME280;4068;42.158;24.732;2023-01-28T01:24:39;98948.56;;;3.74;100.00
8051;BME280;4068;42.158;24.732;2023-01-28T01:27:05;98986.56;;;3.95;100.00
8051;BME280;4068;42.158;24.732;2023-01-28T01:29:31;98980.41;;;3.96;100.00
8051;BME280;4068;42.158;24.732;2023-01-28T01:31:58;98960.75;;;3.89;100.00
8051;BME280;4068;42.158;24.732;2023-01-28T01:34:23;98991.63;;;3.98;100.00
8051;BME280;4068;42.158;24.732;2023-01-28T01:36:49;98985.75;;;3.95;100.00
8051;BME280;4068;42.158;24.732;2023-01-28T01:39:14;98996.69;;;4.02;100.00
8051;BME280;4068;42.158;24.732;2023-01-28T01:41:40;98989.69;;;4.02;100.00
8051;BME280;4068;42.158;24.732;2023-01-28T01:44:05;98996.16;;;3.96;100.00
8051;BME280;4068;42.158;24.732;2023-01-28T01:46:42;99001.94;;;4.02;100.00
8051;BME280;4068;42.158;24.732;2023-01-28T01:49:23;99000.91;;;4.04;100.00
8051;BME280;4068;42.158;24.732;2023-01-28T01:52:09;99010.38;;;4.07;100.00
8051;BME280;4068;42.158;24.732;2023-01-28T01:54:38;99004.66;;;4.00;100.00
8051;BME280;4068;42.158;24.732;2023-01-28T01:57:06;99013.00;;;4.07;100.00
8051;BME280;4068;42.158;24.732;2023-01-28T01:59:35;99012.53;;;4.00;100.00
8051;BME280;4068;42.158;24.732;2023-01-28T02:02:02;99018.72;;;4.13;100.00
8051;BME280;4068;42.158;24.732;2023-01-28T02:04:38;99024.91;;;4.12;100.00
8051;BME280;4068;42.158;24.732;2023-01-28T02:07:04;99026.28;;;4.18;100.00
8051;BME280;4068;42.158;24.732;2023-01-28T02:09:32;99029.22;;;4.13;100.00
8051;BME280;4068;42.158;24.732;2023-01-28T02:12:20;99005.84;;;4.09;100.00
8051;BME280;4068;42.158;24.732;2023-01-28T02:14:54;99028.53;;;4.24;100.00
8051;BME280;4068;42.158;24.732;2023-01-28T02:17:22;99034.91;;;4.20;100.00
8051;BME280;4068;42.158;24.732;2023-01-28T02:19:53;99030.84;;;4.29;100.00
8051;BME280;4068;42.158;24.732;2023-01-28T02:30:41;99047.38;;;4.31;100.00
8051;BME280;4068;42.158;24.732;2023-01-28T02:33:17;99019.94;;;4.08;100.00
8051;BME280;4068;42.158;24.732;2023-01-28T02:35:53;99037.25;;;4.25;100.00
8051;BME280;4068;42.158;24.732;2023-01-28T02:38:31;99024.78;;;4.14;100.00
8051;BME280;4068;42.158;24.732;2023-01-28T02:41:14;99046.16;;;4.37;100.00
8051;BME280;4068;42.158;24.732;2023-01-28T02:43:45;99045.47;;;4.33;99.66
8051;BME280;4068;42.158;24.732;2023-01-28T03:00:27;99056.66;;;4.37;98.40
8051;BME280;4068;42.158;24.732;2023-01-28T03:05:35;99058.59;;;4.33;98.31
8051;BME280;4068;42.158;24.732;2023-01-28T03:08:05;99043.34;;;4.25;98.02
8051;BME280;4068;42.158;24.732;2023-01-28T03:10:55;99062.94;;;4.34;97.79
8051;BME280;4068;42.158;24.732;2023-01-28T03:13:41;99071.81;;;4.31;97.84
8051;BME280;4068;42.158;24.732;2023-01-28T03:16:28;99070.81;;;4.34;97.34
8051;BME280;4068;42.158;24.732;2023-01-28T03:19:13;99066.69;;;4.30;97.41
8051;BME280;4068;42.158;24.732;2023-01-28T03:21:57;99064.34;;;4.25;97.77
8051;BME280;4068;42.158;24.732;2023-01-28T03:24:45;99063.63;;;4.23;97.34
8051;BME280;4068;42.158;24.732;2023-01-28T03:28:01;99060.41;;;4.18;97.52
8051;BME280;4068;42.158;24.732;2023-01-28T03:33:35;99060.81;;;4.12;97.76
8051;BME280;4068;42.158;24.732;2023-01-28T03:36:19;99075.97;;;4.07;98.32
8051;BME280;4068;42.158;24.732;2023-01-28T03:39:03;99067.53;;;4.02;98.15
8051;BME280;4068;42.158;24.732;2023-01-28T03:41:29;99037.25;;;3.82;98.21
8051;BME280;4068;42.158;24.732;2023-01-28T03:43:54;99077.00;;;4.04;98.06
8051;BME280;4068;42.158;24.732;2023-01-28T03:46:20;99076.25;;;4.02;98.19
8051;BME280;4068;42.158;24.732;2023-01-28T03:48:46;99078.13;;;4.00;97.88
8051;BME280;4068;42.158;24.732;2023-01-28T03:51:11;99076.72;;;3.94;97.72
8051;BME280;4068;42.158;24.732;2023-01-28T03:53:37;99082.81;;;3.95;97.58
8051;BME280;4068;42.158;24.732;2023-01-28T03:56:05;99080.28;;;3.93;98.16
8051;BME280;4068;42.158;24.732;2023-01-28T03:58:30;99059.56;;;3.74;98.06
8051;BME280;4068;42.158;24.732;2023-01-28T04:01:25;99087.59;;;3.88;98.36
8051;BME280;4068;42.158;24.732;2023-01-28T04:03:50;99078.22;;;3.84;98.49
8051;BME280;4068;42.158;24.732;2023-01-28T04:06:16;99091.13;;;3.87;98.35
8051;BME280;4068;42.158;24.732;2023-01-28T04:08:41;99093.03;;;3.85;98.56
8051;BME280;4068;42.158;24.732;2023-01-28T04:11:12;99063.84;;;3.61;98.67
8051;BME280;4068;42.158;24.732;2023-01-28T04:13:42;99093.56;;;3.76;98.85
8051;BME280;4068;42.158;24.732;2023-01-28T04:16:07;99090.28;;;3.72;99.81
8051;BME280;4068;42.158;24.732;2023-01-28T04:18:33;99090.84;;;3.77;99.20
8051;BME280;4068;42.158;24.732;2023-01-28T04:20:59;99049.16;;;3.58;99.31
8051;BME280;4068;42.158;24.732;2023-01-28T04:23:25;99084.56;;;3.80;99.32
8051;BME280;4068;42.158;24.732;2023-01-28T04:25:50;99095.75;;;3.84;100.00
8051;BME280;4068;42.158;24.732;2023-01-28T04:28:16;99095.47;;;3.88;100.00
8051;BME280;4068;42.158;24.732;2023-01-28T04:30:42;99063.88;;;3.75;100.00
8051;BME280;4068;42.158;24.732;2023-01-28T04:33:07;99093.41;;;3.93;100.00
8051;BME280;4068;42.158;24.732;2023-01-28T04:35:33;99101.63;;;3.87;100.00
8051;BME280;4068;42.158;24.732;2023-01-28T04:37:58;99068.63;;;3.69;100.00
8051;BME280;4068;42.158;24.732;2023-01-28T04:40:23;99102.84;;;3.82;100.00
8051;BME280;4068;42.158;24.732;2023-01-28T04:42:53;99093.03;;;3.85;100.00
8051;BME280;4068;42.158;24.732;2023-01-28T04:45:19;99103.50;;;3.85;100.00
8051;BME280;4068;42.158;24.732;2023-01-28T04:47:44;99107.16;;;3.83;100.00
8051;BME280;4068;42.158;24.732;2023-01-28T04:50:09;99104.91;;;3.76;100.00
8051;BME280;4068;42.158;24.732;2023-01-28T04:52:35;99113.81;;;3.74;100.00
8051;BME280;4068;42.158;24.732;2023-01-28T04:55:00;99115.84;;;3.69;100.00
8051;BME280;4068;42.158;24.732;2023-01-28T04:57:27;99094.81;;;3.54;100.00
8051;BME280;4068;42.158;24.732;2023-01-28T04:59:53;99131.28;;;3.73;100.00
8051;BME280;4068;42.158;24.732;2023-01-28T05:02:18;99121.94;;;3.69;100.00
8051;BME280;4068;42.158;24.732;2023-01-28T05:04:44;99137.03;;;3.80;100.00
8051;BME280;4068;42.158;24.732;2023-01-28T05:07:09;99138.44;;;3.86;100.00
8051;BME280;4068;42.158;24.732;2023-01-28T05:09:35;99145.13;;;3.91;99.76
8051;BME280;4068;42.158;24.732;2023-01-28T05:12:01;99151.56;;;3.86;99.64
8051;BME280;4068;42.158;24.732;2023-01-28T05:14:26;99141.84;;;3.88;99.41
8051;BME280;4068;42.158;24.732;2023-01-28T05:16:52;99145.41;;;3.87;99.21
8051;BME280;4068;42.158;24.732;2023-01-28T05:19:17;99147.25;;;3.85;99.58
8051;BME280;4068;42.158;24.732;2023-01-28T05:21:43;99145.47;;;3.71;99.97
8051;BME280;4068;42.158;24.732;2023-01-28T05:24:08;99159.50;;;3.70;100.00
8051;BME280;4068;42.158;24.732;2023-01-28T05:26:34;99163.72;;;3.72;100.00
8051;BME280;4068;42.158;24.732;2023-01-28T05:28:59;99161.94;;;3.73;100.00
8051;BME280;4068;42.158;24.732;2023-01-28T05:31:25;99164.56;;;3.73;100.00
8051;BME280;4068;42.158;24.732;2023-01-28T05:33:50;99134.47;;;3.64;99.96
8051;BME280;4068;42.158;24.732;2023-01-28T05:36:17;99164.38;;;3.76;100.00
8051;BME280;4068;42.158;24.732;2023-01-28T05:38:42;99163.44;;;3.77;99.83
8051;BME280;4068;42.158;24.732;2023-01-28T05:41:08;99166.56;;;3.84;99.85
8051;BME280;4068;42.158;24.732;2023-01-28T05:43:33;99141.88;;;3.72;99.49
8051;BME280;4068;42.158;24.732;2023-01-28T05:45:58;99152.22;;;3.75;99.39
8051;BME280;4068;42.158;24.732;2023-01-28T05:48:24;99168.63;;;3.93;99.39
8051;BME280;4068;42.158;24.732;2023-01-28T05:50:49;99176.41;;;3.94;99.20
8051;BME280;4068;42.158;24.732;2023-01-28T05:53:15;99181.66;;;3.94;99.45
8051;BME280;4068;42.158;24.732;2023-01-28T05:55:40;99180.16;;;3.90;99.85
8051;BME280;4068;42.158;24.732;2023-01-28T05:58:06;99188.22;;;4.02;99.29
8051;BME280;4068;42.158;24.732;2023-01-28T06:00:31;99165.59;;;3.85;99.43
8051;BME280;4068;42.158;24.732;2023-01-28T06:02:57;99173.97;;;3.91;99.25
8051;BME280;4068;42.158;24.732;2023-01-28T06:05:22;99174.91;;;3.90;99.25
8051;BME280;4068;42.158;24.732;2023-01-28T06:07:47;99167.81;;;3.92;99.29
8051;BME280;4068;42.158;24.732;2023-01-28T06:10:13;99214.31;;;4.05;98.99
8051;BME280;4068;42.158;24.732;2023-01-28T06:12:39;99203.44;;;4.11;98.86
8051;BME280;4068;42.158;24.732;2023-01-28T06:15:05;99217.63;;;4.23;98.18
8051;BME280;4068;42.158;24.732;2023-01-28T06:17:31;99216.88;;;4.21;98.35
8051;BME280;4068;42.158;24.732;2023-01-28T06:19:56;99228.78;;;4.26;98.24
8051;BME280;4068;42.158;24.732;2023-01-28T06:22:22;99232.16;;;4.28;97.79
8051;BME280;4068;42.158;24.732;2023-01-28T06:24:47;99207.50;;;4.17;97.74
8051;BME280;4068;42.158;24.732;2023-01-28T06:27:13;99232.75;;;4.34;97.42
8051;BME280;4068;42.158;24.732;2023-01-28T06:29:38;99234.03;;;4.26;97.70
8051;BME280;4068;42.158;24.732;2023-01-28T06:32:04;99240.44;;;4.37;98.05
8051;BME280;4068;42.158;24.732;2023-01-28T06:34:30;99245.31;;;4.43;97.71
8051;BME280;4068;42.158;24.732;2023-01-28T06:36:55;99239.59;;;4.51;97.13
8051;BME280;4068;42.158;24.732;2023-01-28T06:39:21;99248.13;;;4.54;96.72
8051;BME280;4068;42.158;24.732;2023-01-28T06:41:48;99238.31;;;4.58;97.08
8051;BME280;4068;42.158;24.732;2023-01-28T06:44:14;99257.13;;;4.64;96.81
8051;BME280;4068;42.158;24.732;2023-01-28T06:46:39;99263.72;;;4.72;95.86
8051;BME280;4068;42.158;24.732;2023-01-28T06:49:04;99259.41;;;4.71;96.17
8051;BME280;4068;42.158;24.732;2023-01-28T06:51:30;99271.44;;;4.75;95.98
8051;BME280;4068;42.158;24.732;2023-01-28T06:53:56;99270.13;;;4.82;96.31
8051;BME280;4068;42.158;24.732;2023-01-28T06:56:21;99268.13;;;4.86;96.02
8051;BME280;4068;42.158;24.732;2023-01-28T06:58:47;99270.09;;;4.96;96.09
8051;BME280;4068;42.158;24.732;2023-01-28T07:01:12;99272.06;;;5.07;95.37
8051;BME280;4068;42.158;24.732;2023-01-28T07:03:38;99277.41;;;5.06;94.79
8051;BME280;4068;42.158;24.732;2023-01-28T07:06:03;99252.00;;;4.92;95.02
8051;BME280;4068;42.158;24.732;2023-01-28T07:08:29;99285.69;;;4.99;94.70
8051;BME280;4068;42.158;24.732;2023-01-28T07:10:54;99281.72;;;5.07;95.50
8051;BME280;4068;42.158;24.732;2023-01-28T07:13:20;99281.53;;;5.10;94.96
8051;BME280;4068;42.158;24.732;2023-01-28T07:15:45;99277.16;;;5.10;95.90
8051;BME280;4068;42.158;24.732;2023-01-28T07:18:11;99290.84;;;5.15;96.17
8051;BME280;4068;42.158;24.732;2023-01-28T07:20:36;99293.75;;;5.25;95.44
8051;BME280;4068;42.158;24.732;2023-01-28T07:23:02;99296.53;;;5.36;95.07
8051;BME280;4068;42.158;24.732;2023-01-28T07:25:27;99298.88;;;5.41;95.00
8051;BME280;4068;42.158;24.732;2023-01-28T07:27:53;99303.47;;;5.52;94.51
8051;BME280;4068;42.158;24.732;2023-01-28T07:30:19;99303.16;;;5.57;93.94
8051;BME280;4068;42.158;24.732;2023-01-28T07:32:45;99307.75;;;5.67;93.42
8051;BME280;4068;42.158;24.732;2023-01-28T07:35:11;99286.66;;;5.55;92.52
8051;BME280;4068;42.158;24.732;2023-01-28T07:37:37;99310.19;;;5.70;91.93
8051;BME280;4068;42.158;24.732;2023-01-28T07:40:03;99318.44;;;5.79;92.32
8051;BME280;4068;42.158;24.732;2023-01-28T07:42:29;99315.31;;;5.86;91.21
8051;BME280;4068;42.158;24.732;2023-01-28T07:44:56;99320.91;;;5.95;91.14
8051;BME280;4068;42.158;24.732;2023-01-28T07:47:21;99324.56;;;6.07;90.43
8051;BME280;4068;42.158;24.732;2023-01-28T07:49:46;99324.81;;;6.16;89.70
8051;BME280;4068;42.158;24.732;2023-01-28T07:52:12;99326.78;;;6.40;88.79
8051;BME280;4068;42.158;24.732;2023-01-28T07:54:37;99303.59;;;6.45;86.97
8051;BME280;4068;42.158;24.732;2023-01-28T07:57:07;99331.22;;;6.65;86.73
8051;BME280;4068;42.158;24.732;2023-01-28T07:59:34;99322.16;;;6.95;86.66
8051;BME280;4068;42.158;24.732;2023-01-28T08:01:59;99316.28;;;7.04;86.27
8051;BME280;4068;42.158;24.732;2023-01-28T08:04:25;99324.66;;;7.48;85.03
8051;BME280;4068;42.158;24.732;2023-01-28T08:06:50;99331.03;;;7.70;83.79
8051;BME280;4068;42.158;24.732;2023-01-28T08:09:16;99309.78;;;7.47;82.11
8051;BME280;4068;42.158;24.732;2023-01-28T08:11:42;99333.88;;;7.80;82.71
8051;BME280;4068;42.158;24.732;2023-01-28T08:14:09;99327.22;;;7.74;80.81
8051;BME280;4068;42.158;24.732;2023-01-28T08:16:35;99349.13;;;7.87;80.25
8051;BME280;4068;42.158;24.732;2023-01-28T08:19:00;99343.75;;;7.89;80.70
8051;BME280;4068;42.158;24.732;2023-01-28T08:21:27;99345.72;;;7.98;79.86
8051;BME280;4068;42.158;24.732;2023-01-28T08:23:52;99357.94;;;7.99;78.92
8051;BME280;4068;42.158;24.732;2023-01-28T08:26:18;99357.59;;;8.17;79.31
8051;BME280;4068;42.158;24.732;2023-01-28T08:28:44;99355.25;;;8.36;78.85
8051;BME280;4068;42.158;24.732;2023-01-28T08:31:09;99350.56;;;8.53;78.92
8051;BME280;4068;42.158;24.732;2023-01-28T08:33:34;99356.22;;;8.35;79.32
8051;BME280;4068;42.158;24.732;2023-01-28T08:36:04;99363.13;;;8.25;79.61
8051;BME280;4068;42.158;24.732;2023-01-28T08:38:29;99336.06;;;8.10;77.38
8051;BME280;4068;42.158;24.732;2023-01-28T08:40:55;99355.94;;;8.27;76.64
8051;BME280;4068;42.158;24.732;2023-01-28T08:43:22;99367.53;;;8.13;77.51
8051;BME280;4068;42.158;24.732;2023-01-28T08:45:47;99369.09;;;8.16;78.51
8051;BME280;4068;42.158;24.732;2023-01-28T08:48:17;99366.91;;;8.09;78.15
8051;BME280;4068;42.158;24.732;2023-01-28T08:50:43;99357.59;;;8.17;78.26
8051;BME280;4068;42.158;24.732;2023-01-28T08:53:11;99373.69;;;8.25;75.88
8051;BME280;4068;42.158;24.732;2023-01-28T08:55:37;99293.16;;;7.82;76.06
8051;BME280;4068;42.158;24.732;2023-01-28T08:58:04;99342.69;;;8.16;75.03
8051;BME280;4068;42.158;24.732;2023-01-28T09:00:30;99363.34;;;8.22;75.15
8051;BME280;4068;42.158;24.732;2023-01-28T09:02:56;99378.78;;;8.39;75.73
8051;BME280;4068;42.158;24.732;2023-01-28T09:05:21;99376.59;;;8.46;75.63
8051;BME280;4068;42.158;24.732;2023-01-28T09:07:47;99370.28;;;8.36;75.05
8051;BME280;4068;42.158;24.732;2023-01-28T09:10:13;99368.22;;;8.39;75.65
8051;BME280;4068;42.158;24.732;2023-01-28T09:12:40;99380.66;;;8.26;76.62
8051;BME280;4068;42.158;24.732;2023-01-28T09:15:06;99361.63;;;8.09;76.56
8051;BME280;4068;42.158;24.732;2023-01-28T09:17:32;99355.31;;;7.99;77.08
8051;BME280;4068;42.158;24.732;2023-01-28T09:19:57;99373.81;;;8.23;75.77
8051;BME280;4068;42.158;24.732;2023-01-28T09:22:23;99376.63;;;8.09;75.86
8051;BME280;4068;42.158;24.732;2023-01-28T09:24:48;99383.13;;;7.92;76.30
8051;BME280;4068;42.158;24.732;2023-01-28T09:27:14;99357.94;;;7.75;77.06
8051;BME280;4068;42.158;24.732;2023-01-28T09:29:40;99362.34;;;7.87;77.08
8051;BME280;4068;42.158;24.732;2023-01-28T09:32:05;99375.56;;;8.11;76.01
8051;BME280;4068;42.158;24.732;2023-01-28T09:34:33;99364.59;;;8.05;75.41
8051;BME280;4068;42.158;24.732;2023-01-28T09:36:59;99371.41;;;8.20;75.49
8051;BME280;4068;42.158;24.732;2023-01-28T09:39:24;99354.94;;;8.17;75.47
8051;BME280;4068;42.158;24.732;2023-01-28T09:45:15;99369.16;;;8.87;74.39
8051;BME280;4068;42.158;24.732;2023-01-28T09:47:53;99375.41;;;8.97;73.00
8051;BME280;4068;42.158;24.732;2023-01-28T09:50:30;99341.28;;;9.05;70.93
8051;BME280;4068;42.158;24.732;2023-01-28T09:53:03;99358.13;;;9.04;69.49
8051;BME280;4068;42.158;24.732;2023-01-28T09:55:34;99375.22;;;9.34;68.69
8051;BME280;4068;42.158;24.732;2023-01-28T09:58:02;99373.53;;;9.33;68.88
8051;BME280;4068;42.158;24.732;2023-01-28T10:03:42;99371.00;;;9.65;67.61
8051;BME280;4068;42.158;24.732;2023-01-28T10:09:15;99375.59;;;9.63;66.63
8051;BME280;4068;42.158;24.732;2023-01-28T10:19:40;99355.59;;;9.03;68.27
8051;BME280;4068;42.158;24.732;2023-01-28T10:22:19;99386.75;;;9.22;67.57
8051;BME280;4068;42.158;24.732;2023-01-28T10:24:52;99373.53;;;9.22;68.17
8051;BME280;4068;42.158;24.732;2023-01-28T10:27:22;99381.47;;;9.33;67.90
8051;BME280;4068;42.158;24.732;2023-01-28T10:29:49;99383.66;;;9.39;67.95
8051;BME280;4068;42.158;24.732;2023-01-28T10:32:34;99367.28;;;9.45;67.00
8051;BME280;4068;42.158;24.732;2023-01-28T10:35:03;99377.75;;;9.58;66.72
8051;BME280;4068;42.158;24.732;2023-01-28T10:37:34;99346.94;;;9.57;66.49
8051;BME280;4068;42.158;24.732;2023-01-28T10:40:02;99382.41;;;9.66;65.09
8051;BME280;4068;42.158;24.732;2023-01-28T10:42:33;99359.47;;;9.32;65.55
8051;BME280;4068;42.158;24.732;2023-01-28T10:45:07;99381.84;;;9.51;65.53
8051;BME280;4068;42.158;24.732;2023-01-28T10:50:25;99368.22;;;9.33;66.05
8051;BME280;4068;42.158;24.732;2023-01-28T10:53:00;99382.44;;;9.32;66.20
8051;BME280;4068;42.158;24.732;2023-01-28T10:55:45;99353.44;;;9.08;66.33
8051;BME280;4068;42.158;24.732;2023-01-28T10:58:26;99347.56;;;9.15;67.67
8051;BME280;4068;42.158;24.732;2023-01-28T11:00:53;99363.44;;;9.27;66.88
8051;BME280;4068;42.158;24.732;2023-01-28T11:03:20;99373.91;;;9.28;66.43
8051;BME280;4068;42.158;24.732;2023-01-28T11:05:50;99354.75;;;9.13;67.17
8051;BME280;4068;42.158;24.732;2023-01-28T11:08:17;99369.81;;;9.24;67.80
8051;BME280;4068;42.158;24.732;2023-01-28T11:10:44;99369.88;;;9.00;66.93
8051;BME280;4068;42.158;24.732;2023-01-28T11:13:24;99375.69;;;9.17;68.14
8051;BME280;4068;42.158;24.732;2023-01-28T11:15:54;99381.09;;;9.38;66.98
8051;BME280;4068;42.158;24.732;2023-01-28T11:18:27;99374.28;;;9.46;66.78
8051;BME280;4068;42.158;24.732;2023-01-28T11:21:00;99366.41;;;9.56;67.16
8051;BME280;4068;42.158;24.732;2023-01-28T11:23:30;99349.34;;;9.60;67.19
8051;BME280;4068;42.158;24.732;2023-01-28T11:26:07;99368.19;;;10.01;66.49
8051;BME280;4068;42.158;24.732;2023-01-28T11:28:34;99357.84;;;9.87;65.50
8051;BME280;4068;42.158;24.732;2023-01-28T11:31:04;99340.44;;;9.50;67.05
8051;BME280;4068;42.158;24.732;2023-01-28T11:33:58;99338.16;;;9.45;65.31
8051;BME280;4068;42.158;24.732;2023-01-28T11:36:30;99373.28;;;9.59;66.79
8051;BME280;4068;42.158;24.732;2023-01-28T11:38:58;99355.25;;;9.30;67.45
8051;BME280;4068;42.158;24.732;2023-01-28T11:41:35;99369.91;;;9.23;67.10
8051;BME280;4068;42.158;24.732;2023-01-28T11:44:27;99373.88;;;9.06;67.85
8051;BME280;4068;42.158;24.732;2023-01-28T12:08:25;99382.78;;;8.21;72.04
8051;BME280;4068;42.158;24.732;2023-01-28T12:14:55;99386.72;;;8.15;73.27
8051;BME280;4068;42.158;24.732;2023-01-28T12:23:22;99391.25;;;7.89;74.83
8051;BME280;4068;42.158;24.732;2023-01-28T12:26:08;99399.44;;;7.73;75.76
8051;BME280;4068;42.158;24.732;2023-01-28T12:28:48;99394.19;;;7.60;76.53
8051;BME280;4068;42.158;24.732;2023-01-28T12:31:42;99394.69;;;7.65;77.56
8051;BME280;4068;42.158;24.732;2023-01-28T12:42:41;99413.53;;;7.22;81.30
8051;BME280;4068;42.158;24.732;2023-01-28T12:45:17;99413.84;;;7.04;82.86
8051;BME280;4068;42.158;24.732;2023-01-28T12:47:51;99418.53;;;6.73;83.58
8051;BME280;4068;42.158;24.732;2023-01-28T12:50:23;99423.22;;;6.55;84.92
8051;BME280;4068;42.158;24.732;2023-01-28T12:52:57;99414.78;;;6.50;85.61
8051;BME280;4068;42.158;24.732;2023-01-28T12:55:46;99416.78;;;6.60;87.52
8051;BME280;4068;42.158;24.732;2023-01-28T12:58:23;99419.56;;;6.71;86.38
8051;BME280;4068;42.158;24.732;2023-01-28T13:00:59;99417.28;;;6.79;86.54
8051;BME280;4068;42.158;24.732;2023-01-28T13:03:34;99435.53;;;6.95;87.27
8051;BME280;4068;42.158;24.732;2023-01-28T13:06:07;99428.78;;;6.91;87.90
8051;BME280;4068;42.158;24.732;2023-01-28T13:08:36;99402.50;;;6.77;86.89
8051;BME280;4068;42.158;24.732;2023-01-28T13:11:03;99398.69;;;6.68;85.69
8051;BME280;4068;42.158;24.732;2023-01-28T13:13:33;99431.22;;;6.81;86.30
8051;BME280;4068;42.158;24.732;2023-01-28T13:16:00;99437.31;;;6.82;85.74
8051;BME280;4068;42.158;24.732;2023-01-28T13:21:28;99440.81;;;6.55;85.45
8051;BME280;4068;42.158;24.732;2023-01-28T13:26:30;99449.75;;;6.52;85.50
8051;BME280;4068;42.158;24.732;2023-01-28T13:31:50;99451.88;;;6.47;86.27
8051;BME280;4068;42.158;24.732;2023-01-28T13:34:42;99450.38;;;6.43;87.18
8051;BME280;4068;42.158;24.732;2023-01-28T13:37:38;99452.84;;;6.32;87.72
8051;BME280;4068;42.158;24.732;2023-01-28T13:42:40;99460.09;;;6.28;88.07
8051;BME280;4068;42.158;24.732;2023-01-28T13:45:32;99466.91;;;6.18;88.66
8051;BME280;4068;42.158;24.732;2023-01-28T13:48:33;99467.84;;;6.17;88.00
8051;BME280;4068;42.158;24.732;2023-01-28T13:51:11;99429.50;;;5.84;89.72
8051;BME280;4068;42.158;24.732;2023-01-28T13:53:44;99474.09;;;6.01;89.81
8051;BME280;4068;42.158;24.732;2023-01-28T13:56:21;99480.56;;;5.96;90.71
8051;BME280;4068;42.158;24.732;2023-01-28T14:16:19;99495.28;;;5.41;99.54
8051;BME280;4068;42.158;24.732;2023-01-28T14:18:48;99500.53;;;5.26;100.00
8051;BME280;4068;42.158;24.732;2023-01-28T14:21:17;99495.47;;;5.23;100.00
8051;BME280;4068;42.158;24.732;2023-01-28T14:23:46;99491.78;;;5.26;100.00
8051;BME280;4068;42.158;24.732;2023-01-28T14:26:49;99485.41;;;5.30;100.00
8051;BME280;4068;42.158;24.732;2023-01-28T14:32:03;99475.94;;;5.27;100.00
8051;BME280;4068;42.158;24.732;2023-01-28T14:34:31;99458.31;;;4.99;100.00
8051;BME280;4068;42.158;24.732;2023-01-28T14:37:11;99470.63;;;5.13;100.00
8051;BME280;4068;42.158;24.732;2023-01-28T14:39:42;99497.63;;;5.31;100.00
8051;BME280;4068;42.158;24.732;2023-01-28T14:42:36;99502.78;;;5.32;100.00
8051;BME280;4068;42.158;24.732;2023-01-28T14:45:21;99506.09;;;5.36;100.00
8051;BME280;4068;42.158;24.732;2023-01-28T14:58:38;99521.59;;;5.41;100.00
8051;BME280;4068;42.158;24.732;2023-01-28T15:01:22;99511.06;;;5.41;99.94
8051;BME280;4068;42.158;24.732;2023-01-28T15:03:49;99514.53;;;5.41;98.16
8051;BME280;4068;42.158;24.732;2023-01-28T15:06:19;99519.53;;;5.46;97.26
8051;BME280;4068;42.158;24.732;2023-01-28T15:08:46;99535.56;;;5.41;97.14
8051;BME280;4068;42.158;24.732;2023-01-28T15:11:14;99505.69;;;5.28;96.28
8051;BME280;4068;42.158;24.732;2023-01-28T15:13:49;99537.56;;;5.38;95.57
8051;BME280;4068;42.158;24.732;2023-01-28T15:16:18;99530.41;;;5.40;95.07
8051;BME280;4068;42.158;24.732;2023-01-28T15:18:46;99540.19;;;5.38;95.28
8051;BME280;4068;42.158;24.732;2023-01-28T15:21:12;99546.28;;;5.38;95.36
8051;BME280;4068;42.158;24.732;2023-01-28T15:23:41;99539.31;;;5.37;95.75
8051;BME280;4068;42.158;24.732;2023-01-28T15:26:19;99549.28;;;5.32;96.60
8051;BME280;4068;42.158;24.732;2023-01-28T15:28:46;99546.56;;;5.33;96.64
8051;BME280;4068;42.158;24.732;2023-01-28T15:31:26;99547.78;;;5.42;96.34
8051;BME280;4068;42.158;24.732;2023-01-28T15:33:57;99559.34;;;5.40;96.84
8051;BME280;4068;42.158;24.732;2023-01-28T15:36:22;99562.38;;;5.48;96.26
8051;BME280;4068;42.158;24.732;2023-01-28T15:38:47;99549.50;;;5.43;95.95
8051;BME280;4068;42.158;24.732;2023-01-28T15:41:14;99566.53;;;5.52;95.45